createdAt,value
2018-03-01T00:01:35.134Z,28.70
2018-03-01T00:04:02.610Z,27.33
2018-03-01T00:06:30.134Z,31.17
2018-03-01T00:08:58.386Z,29.60
2018-03-01T00:11:25.858Z,32.80
2018-03-01T00:13:53.359Z,33.77
2018-03-01T00:16:20.850Z,31.23
2018-03-01T00:18:48.340Z,35.20
2018-03-01T00:21:16.586Z,30.13
2018-03-01T00:23:44.063Z,30.10
2018-03-01T00:26:12.315Z,31.13
2018-03-01T00:28:39.790Z,26.87
2018-03-01T00:31:07.267Z,32.33
2018-03-01T00:33:34.730Z,30.13
2018-03-01T00:36:02.224Z,23.27
2018-03-01T00:38:29.689Z,28.57
2018-03-01T00:40:57.169Z,32.80
2018-03-01T00:43:24.648Z,31.27
2018-03-01T00:45:52.140Z,32.50
2018-03-01T00:48:19.623Z,31.33
2018-03-01T00:50:47.094Z,30.90
2018-03-01T00:53:14.582Z,29.30
2018-03-01T00:55:42.832Z,33.27
2018-03-01T00:58:10.316Z,33.37
2018-03-01T01:00:37.806Z,29.83
2018-03-01T01:03:05.295Z,27.70
2018-03-01T01:05:32.777Z,31.37
2018-03-01T01:08:00.272Z,33.60
2018-03-01T01:10:27.749Z,33.07
2018-03-01T01:12:55.239Z,29.47
2018-03-01T01:15:22.717Z,34.47
2018-03-01T01:17:50.410Z,32.73
2018-03-01T01:20:17.907Z,33.70
2018-03-01T01:22:45.385Z,30.27
2018-03-01T01:25:13.634Z,35.83
2018-03-01T01:27:41.123Z,31.63
2018-03-01T01:30:09.382Z,32.73
2018-03-01T01:32:37.636Z,31.07
2018-03-01T01:35:05.113Z,33.10
2018-03-01T01:37:32.601Z,31.07
2018-03-01T01:40:00.839Z,29.73
2018-03-01T01:42:28.326Z,34.47
2018-03-01T01:44:56.565Z,33.93
2018-03-01T01:47:24.046Z,34.90
2018-03-01T01:49:51.544Z,33.73
2018-03-01T01:52:19.018Z,35.23
2018-03-01T01:54:46.494Z,30.77
2018-03-01T01:57:14.000Z,32.13
2018-03-01T01:59:41.494Z,35.70
2018-03-01T02:02:08.982Z,33.50
2018-03-01T02:04:36.490Z,32.43
2018-03-01T02:07:03.979Z,27.70
2018-03-01T02:09:31.470Z,33.07
2018-03-01T02:11:59.710Z,32.87
2018-03-01T02:14:27.215Z,35.03
2018-03-01T02:16:54.707Z,37.57
2018-03-01T02:19:22.192Z,34.63
2018-03-01T02:21:49.678Z,32.10
2018-03-01T02:24:17.922Z,34.73
2018-03-01T02:26:45.400Z,32.20
2018-03-01T02:29:13.645Z,37.07
2018-03-01T02:31:41.122Z,33.50
2018-03-01T02:34:08.607Z,37.37
2018-03-01T02:36:36.111Z,35.33
2018-03-01T02:39:03.593Z,34.37
2018-03-01T02:41:31.095Z,34.07
2018-03-01T02:43:58.878Z,34.87
2018-03-01T02:46:26.359Z,29.90
2018-03-01T02:48:53.861Z,36.23
2018-03-01T02:51:21.658Z,33.93
2018-03-01T02:53:49.131Z,32.97
2018-03-01T02:56:16.601Z,39.30
2018-03-01T02:58:44.087Z,36.80
2018-03-01T03:01:12.339Z,31.70
2018-03-01T03:03:39.839Z,32.20
2018-03-01T03:06:07.322Z,35.23
2018-03-01T03:08:34.806Z,34.07
2018-03-01T03:11:02.297Z,35.73
2018-03-01T03:13:30.530Z,32.20
2018-03-01T03:15:58.015Z,33.17
2018-03-01T03:18:25.485Z,35.13
2018-03-01T03:20:53.730Z,40.23
2018-03-01T03:23:21.210Z,36.33
2018-03-01T03:25:48.686Z,41.37
2018-03-01T03:28:16.191Z,31.70
2018-03-01T03:30:43.669Z,35.63
2018-03-01T03:33:11.153Z,36.90
2018-03-01T03:35:39.398Z,37.63
2018-03-01T03:38:06.877Z,38.50
2018-03-01T03:40:35.118Z,38.90
2018-03-01T03:43:02.622Z,36.40
2018-03-01T03:45:30.118Z,35.70
2018-03-01T03:47:57.591Z,37.43
2018-03-01T03:50:25.071Z,33.73
2018-03-01T03:52:53.318Z,37.73
2018-03-01T03:55:20.828Z,36.47
2018-03-01T03:57:48.546Z,37.13
2018-03-01T04:00:16.027Z,37.13
2018-03-01T04:02:43.505Z,37.80
2018-03-01T04:05:11.002Z,35.80
2018-03-01T04:07:38.462Z,39.57
2018-03-01T04:10:05.938Z,37.73
2018-03-01T04:12:33.412Z,37.17
2018-03-01T04:15:00.890Z,33.10
2018-03-01T04:17:29.131Z,42.33
2018-03-01T04:19:56.618Z,33.57
2018-03-01T04:22:24.858Z,37.37
2018-03-01T04:24:52.356Z,31.10
2018-03-01T04:27:19.866Z,32.83
2018-03-01T04:29:47.338Z,36.33
2018-03-01T04:32:14.834Z,36.30
2018-03-01T04:34:42.319Z,35.37
2018-03-01T04:37:09.789Z,38.20
2018-03-01T04:39:37.254Z,33.53
2018-03-01T04:42:04.747Z,32.90
2018-03-01T04:44:32.218Z,35.13
2018-03-01T04:46:59.722Z,35.60
2018-03-01T04:49:27.222Z,41.63
2018-03-01T04:51:55.474Z,39.73
2018-03-01T04:54:22.962Z,33.47
2018-03-01T04:56:51.211Z,33.53
2018-03-01T04:59:18.695Z,36.43
2018-03-01T05:01:46.212Z,31.70
2018-03-01T05:04:13.683Z,34.90
2018-03-01T05:06:41.170Z,37.33
2018-03-01T05:09:08.639Z,39.43
2018-03-01T05:11:36.132Z,37.57
2018-03-01T05:14:03.606Z,42.97
2018-03-01T05:16:31.086Z,35.00
2018-03-01T05:18:59.334Z,36.73
2018-03-01T05:21:27.414Z,39.60
2018-03-01T05:23:54.893Z,36.20
2018-03-01T05:26:23.143Z,41.27
2018-03-01T05:28:50.628Z,41.57
2018-03-01T05:31:18.936Z,38.97
2018-03-01T05:33:47.154Z,36.37
2018-03-01T05:36:14.631Z,39.97
2018-03-01T05:38:42.112Z,37.30
2018-03-01T05:41:09.586Z,35.87
2018-03-01T05:43:37.070Z,41.93
2018-03-01T05:46:04.562Z,39.87
2018-03-01T05:48:32.807Z,43.43
2018-03-01T05:51:00.281Z,43.60
2018-03-01T05:53:27.746Z,39.20
2018-03-01T05:55:55.213Z,39.63
2018-03-01T05:58:22.689Z,47.00
2018-03-01T06:00:50.216Z,39.10
2018-03-01T06:03:17.709Z,38.10
2018-03-01T06:05:45.202Z,39.30
2018-03-01T06:08:12.691Z,39.17
2018-03-01T06:10:40.170Z,41.20
2018-03-01T06:13:07.663Z,39.30
2018-03-01T06:15:35.142Z,33.43
2018-03-01T06:18:02.615Z,40.17
2018-03-01T06:20:30.078Z,38.90
2018-03-01T06:22:57.562Z,35.47
2018-03-01T06:25:25.030Z,35.93
2018-03-01T06:27:52.519Z,40.33
2018-03-01T06:30:19.987Z,33.20
2018-03-01T06:32:47.462Z,39.93
2018-03-01T06:35:14.931Z,35.73
2018-03-01T06:37:43.195Z,38.97
2018-03-01T06:40:10.722Z,37.47
2018-03-01T06:42:38.443Z,39.57
2018-03-01T06:45:06.673Z,45.23
2018-03-01T06:47:34.158Z,39.70
2018-03-01T06:50:02.402Z,40.60
2018-03-01T06:52:29.882Z,39.93
2018-03-01T06:54:57.344Z,38.10
2018-03-01T06:57:24.819Z,40.77
2018-03-01T06:59:52.301Z,38.10
2018-03-01T07:02:19.781Z,37.50
2018-03-01T07:04:47.306Z,44.13
2018-03-01T07:07:14.789Z,39.83
2018-03-01T07:09:42.275Z,39.27
2018-03-01T07:12:09.747Z,40.20
2018-03-01T07:14:37.233Z,41.00
2018-03-01T07:17:04.819Z,39.13
2018-03-01T07:19:32.321Z,35.20
2018-03-01T07:21:59.793Z,36.20
2018-03-01T07:24:28.033Z,34.83
2018-03-01T07:26:55.511Z,38.27
2018-03-01T07:29:23.760Z,37.27
2018-03-01T07:31:51.242Z,39.03
2018-03-01T07:34:18.711Z,39.73
2018-03-01T07:36:46.974Z,39.47
2018-03-01T07:39:14.453Z,37.23
2018-03-01T07:41:41.947Z,41.20
2018-03-01T07:44:09.422Z,39.83
2018-03-01T07:46:36.881Z,37.57
2018-03-01T07:49:04.354Z,35.90
2018-03-01T07:51:31.822Z,42.57
2018-03-01T07:53:59.532Z,39.43
2018-03-01T07:56:27.003Z,37.10
2018-03-01T07:58:54.473Z,34.57
2018-03-01T08:01:21.957Z,41.10
2018-03-01T08:03:50.202Z,37.17
2018-03-01T08:06:17.686Z,32.30
2018-03-01T08:08:45.930Z,41.37
2018-03-01T08:11:13.408Z,36.30
2018-03-01T08:13:40.877Z,40.63
2018-03-01T08:16:09.174Z,44.33
2018-03-01T08:18:37.414Z,40.43
2018-03-01T08:21:04.886Z,38.93
2018-03-01T08:23:33.139Z,36.60
2018-03-01T08:26:00.613Z,36.23
2018-03-01T08:28:28.135Z,37.50
2018-03-01T08:30:55.603Z,37.83
2018-03-01T08:33:23.078Z,38.87
2018-03-01T08:35:50.558Z,42.87
2018-03-01T08:38:18.802Z,40.03
2018-03-01T08:40:46.259Z,43.70
2018-03-01T08:43:14.585Z,35.73
2018-03-01T08:45:42.083Z,37.83
2018-03-01T08:48:09.571Z,33.53
2018-03-01T08:50:37.827Z,35.53
2018-03-01T08:53:05.315Z,31.77
2018-03-01T08:55:32.816Z,37.13
2018-03-01T08:58:00.965Z,39.63
2018-03-01T09:00:28.561Z,38.60
2018-03-01T09:02:56.063Z,36.87
2018-03-01T09:05:23.650Z,39.20
2018-03-01T09:07:51.186Z,38.30
2018-03-01T09:10:19.436Z,36.87
2018-03-01T09:12:47.016Z,38.83
2018-03-01T09:15:15.438Z,40.33
2018-03-01T09:17:43.874Z,38.47
2018-03-01T09:20:12.200Z,39.00
2018-03-01T09:22:39.759Z,37.87
2018-03-01T09:25:07.648Z,33.90
2018-03-01T09:27:35.928Z,38.30
2018-03-01T09:30:03.430Z,42.77
2018-03-01T09:32:31.831Z,38.00
2018-03-01T09:35:00.519Z,38.87
2018-03-01T09:37:28.044Z,35.80
2018-03-01T09:39:57.216Z,37.03
2018-03-01T09:42:24.772Z,36.73
2018-03-01T09:44:52.274Z,49.93
2018-03-01T09:47:19.820Z,40.87
2018-03-01T09:49:47.326Z,38.90
2018-03-01T09:52:14.881Z,38.77
2018-03-01T09:54:42.403Z,36.97
2018-03-01T09:57:12.523Z,36.27
2018-03-01T09:59:40.079Z,37.40
2018-03-01T10:02:07.635Z,33.63
2018-03-01T10:04:36.196Z,40.83
2018-03-01T10:07:04.537Z,38.83
2018-03-01T10:09:33.040Z,40.40
2018-03-01T10:12:00.571Z,39.30
2018-03-01T10:14:28.129Z,39.60
2018-03-01T10:16:55.630Z,39.47
2018-03-01T10:19:23.124Z,41.33
2018-03-01T10:21:51.312Z,37.80
2018-03-01T10:24:18.874Z,38.23
2018-03-01T10:26:46.384Z,36.70
2018-03-01T10:29:13.868Z,37.73
2018-03-01T10:31:41.347Z,37.23
2018-03-01T10:34:09.063Z,37.57
2018-03-01T10:36:36.554Z,37.73
2018-03-01T10:39:04.056Z,39.20
2018-03-01T10:41:31.549Z,42.07
2018-03-01T10:43:59.838Z,37.57
2018-03-01T10:46:27.311Z,41.50
2018-03-01T10:48:54.789Z,37.50
2018-03-01T10:51:22.283Z,40.97
2018-03-01T10:53:50.526Z,39.50
2018-03-01T10:56:17.994Z,38.73
2018-03-01T10:58:46.476Z,41.87
2018-03-01T11:01:18.827Z,39.10
2018-03-01T11:03:46.368Z,28.53
2018-03-01T11:06:13.840Z,42.80
2018-03-01T11:08:41.315Z,36.67
2018-03-01T11:11:08.781Z,39.43
2018-03-01T11:13:36.251Z,37.87
2018-03-01T11:16:03.723Z,37.33
2018-03-01T11:18:31.966Z,40.27
2018-03-01T11:20:59.446Z,38.30
2018-03-01T11:23:27.690Z,38.67
2018-03-01T11:25:55.156Z,39.47
2018-03-01T11:28:22.639Z,33.50
2018-03-01T11:30:50.874Z,39.67
2018-03-01T11:33:18.360Z,35.67
2018-03-01T11:35:45.834Z,39.17
2018-03-01T11:38:14.070Z,40.53
2018-03-01T11:40:41.542Z,39.60
2018-03-01T11:43:09.028Z,36.37
2018-03-01T11:45:37.275Z,39.63
2018-03-01T11:48:04.735Z,33.67
2018-03-01T11:50:32.207Z,39.67
2018-03-01T11:53:00.439Z,36.93
2018-03-01T11:55:27.918Z,35.37
2018-03-01T11:57:55.380Z,36.50
2018-03-01T12:00:22.850Z,31.03
2018-03-01T12:02:51.103Z,40.53
2018-03-01T12:05:18.574Z,34.20
2018-03-01T12:07:46.050Z,37.83
2018-03-01T12:10:14.295Z,34.33
2018-03-01T12:12:41.792Z,34.67
2018-03-01T12:15:10.051Z,35.60
2018-03-01T12:17:37.524Z,36.33
2018-03-01T12:20:05.016Z,35.20
2018-03-01T12:22:32.495Z,37.27
2018-03-01T12:24:59.982Z,36.80
2018-03-01T12:27:28.231Z,36.53
2018-03-01T12:29:55.699Z,37.83
2018-03-01T12:32:23.170Z,32.53
2018-03-01T12:34:51.408Z,34.67
2018-03-01T12:37:18.891Z,35.27
2018-03-01T12:39:46.366Z,32.60
2018-03-01T12:42:14.611Z,34.90
2018-03-01T12:44:42.122Z,49.80
2018-03-01T12:47:09.603Z,41.80
2018-03-01T12:49:37.075Z,33.57
2018-03-01T12:52:04.573Z,34.40
2018-03-01T12:54:32.039Z,34.90
2018-03-01T12:57:00.290Z,35.00
2018-03-01T12:59:28.531Z,37.10
2018-03-01T13:01:56.000Z,37.53
2018-03-01T13:04:26.026Z,36.37
2018-03-01T13:06:53.539Z,34.00
2018-03-01T13:09:21.750Z,35.67
2018-03-01T13:11:49.215Z,36.17
2018-03-01T13:14:16.698Z,36.50
2018-03-01T13:16:44.924Z,35.40
2018-03-01T13:19:12.418Z,37.43
2018-03-01T13:21:39.957Z,37.67
2018-03-01T13:24:07.441Z,38.97
2018-03-01T13:26:34.914Z,37.37
2018-03-01T13:29:03.525Z,37.07
2018-03-01T13:31:30.992Z,35.60
2018-03-01T13:37:04.262Z,33.80
2018-03-01T13:39:31.711Z,38.43
2018-03-01T13:44:59.066Z,35.83
2018-03-01T13:47:42.393Z,37.97
2018-03-01T13:50:09.866Z,39.40
2018-03-01T13:52:38.116Z,35.63
2018-03-01T13:55:05.586Z,41.13
2018-03-01T13:57:33.062Z,39.23
2018-03-01T14:00:01.295Z,36.27
2018-03-01T14:02:28.779Z,37.20
2018-03-01T14:04:56.244Z,34.07
2018-03-01T14:07:38.557Z,37.67
2018-03-01T14:10:06.812Z,37.50
2018-03-01T14:12:34.900Z,37.70
2018-03-01T14:15:05.302Z,37.83
2018-03-01T14:20:53.569Z,38.00
2018-03-01T14:23:35.999Z,41.50
2018-03-01T14:26:12.886Z,35.43
2018-03-01T14:28:41.794Z,41.47
2018-03-01T14:31:09.353Z,37.03
2018-03-01T14:33:36.863Z,37.00
2018-03-01T14:36:04.381Z,38.33
2018-03-01T14:38:32.001Z,35.53
2018-03-01T14:40:59.523Z,35.87
2018-03-01T14:43:27.030Z,38.50
2018-03-01T14:45:54.556Z,37.80
2018-03-01T14:48:22.067Z,36.03
2018-03-01T14:50:49.627Z,37.60
2018-03-01T14:53:17.129Z,44.70
2018-03-01T14:55:44.699Z,38.73
2018-03-01T14:58:12.998Z,35.57
2018-03-01T15:00:41.261Z,35.60
2018-03-01T15:03:09.533Z,37.03
2018-03-01T15:05:37.809Z,36.47
2018-03-01T15:08:06.077Z,36.93
2018-03-01T15:10:34.350Z,37.43
2018-03-01T15:13:02.631Z,36.07
2018-03-01T15:15:30.230Z,38.90
2018-03-01T15:17:57.741Z,37.47
2018-03-01T15:20:26.008Z,35.23
2018-03-01T15:22:53.531Z,37.93
2018-03-01T15:25:21.042Z,35.77
2018-03-01T15:27:49.307Z,36.70
2018-03-01T15:30:17.581Z,37.93
2018-03-01T15:32:45.865Z,38.27
2018-03-01T15:35:14.139Z,36.63
2018-03-01T15:37:42.405Z,39.50
2018-03-01T15:40:10.680Z,33.47
2018-03-01T15:42:38.966Z,36.37
2018-03-01T15:45:07.231Z,38.20
2018-03-01T15:47:35.526Z,37.40
2018-03-01T15:50:03.051Z,40.80
2018-03-01T15:52:30.574Z,38.53
2018-03-01T15:54:58.106Z,36.03
2018-03-01T15:57:25.625Z,37.80
2018-03-01T15:59:53.135Z,34.23
2018-03-01T16:02:20.656Z,37.07
2018-03-01T16:04:49.030Z,38.50
2018-03-01T16:07:17.305Z,37.80
2018-03-01T16:09:45.597Z,37.87
2018-03-01T16:12:13.202Z,39.17
2018-03-01T16:14:40.725Z,37.87
2018-03-01T16:17:08.230Z,39.57
2018-03-01T16:19:35.745Z,38.07
2018-03-01T16:22:03.251Z,37.43
2018-03-01T16:24:31.550Z,43.60
2018-03-01T16:26:59.826Z,38.40
2018-03-01T16:29:28.196Z,42.27
2018-03-01T16:31:57.489Z,36.50
2018-03-01T16:34:25.765Z,42.93
2018-03-01T16:36:54.048Z,40.40
2018-03-01T16:39:22.316Z,40.13
2018-03-01T16:41:50.598Z,38.63
2018-03-01T16:44:19.052Z,41.67
2018-03-01T16:46:46.577Z,39.70
2018-03-01T16:49:14.849Z,38.43
2018-03-01T16:51:42.363Z,43.33
2018-03-01T16:54:10.634Z,46.20
2018-03-01T16:56:38.894Z,44.40
2018-03-01T16:59:07.177Z,39.80
2018-03-01T17:01:36.468Z,42.90
2018-03-01T17:04:03.974Z,40.97
2018-03-01T17:06:32.738Z,42.53
2018-03-01T17:09:00.259Z,39.70
2018-03-01T17:11:27.761Z,41.73
2018-03-01T17:13:55.293Z,42.70
2018-03-01T17:16:23.638Z,41.47
2018-03-01T17:18:52.130Z,45.73
2018-03-01T17:21:19.654Z,45.90
2018-03-01T17:23:47.655Z,45.37
2018-03-01T17:26:15.193Z,48.30
2018-03-01T17:28:42.691Z,45.70
2018-03-01T17:31:10.984Z,47.87
2018-03-01T17:33:38.489Z,48.83
2018-03-01T17:36:07.769Z,53.20
2018-03-01T17:38:35.269Z,44.77
2018-03-01T17:41:03.576Z,45.67
2018-03-01T17:43:31.099Z,45.77
2018-03-01T17:45:58.606Z,43.13
2018-03-01T17:48:31.430Z,45.37
2018-03-01T17:50:58.940Z,41.23
2018-03-01T17:53:26.445Z,43.77
2018-03-01T17:55:53.953Z,43.73
2018-03-01T17:58:21.458Z,44.53
2018-03-01T18:00:48.971Z,44.10
2018-03-01T18:03:16.503Z,48.67
2018-03-01T18:05:44.017Z,47.83
2018-03-01T18:08:11.542Z,45.50
2018-03-01T18:10:39.061Z,44.77
2018-03-01T18:13:07.337Z,44.20
2018-03-01T18:15:35.596Z,45.07
2018-03-01T18:18:03.885Z,51.20
2018-03-01T18:20:32.181Z,44.07
2018-03-01T18:22:59.702Z,42.13
2018-03-01T18:25:28.002Z,42.97
2018-03-01T18:27:55.526Z,44.90
2018-03-01T18:30:23.045Z,48.40
2018-03-01T18:32:50.567Z,44.33
2018-03-01T18:35:18.919Z,43.83
2018-03-01T18:37:46.424Z,47.33
2018-03-01T18:40:13.943Z,44.80
2018-03-01T18:42:42.252Z,43.97
2018-03-01T18:45:09.816Z,46.63
2018-03-01T18:47:37.331Z,41.97
2018-03-01T18:50:05.623Z,39.10
2018-03-01T18:52:33.934Z,41.90
2018-03-01T18:55:01.454Z,44.93
2018-03-01T18:57:29.734Z,44.90
2018-03-01T18:59:58.008Z,41.93
2018-03-01T19:02:25.535Z,44.97
2018-03-01T19:04:53.842Z,48.63
2018-03-01T19:07:22.104Z,45.70
2018-03-01T19:09:50.865Z,47.60
2018-03-01T19:12:18.374Z,43.83
2018-03-01T19:14:45.939Z,46.80
2018-03-01T19:17:13.455Z,46.50
2018-03-01T19:19:41.786Z,48.30
2018-03-01T19:22:09.303Z,46.87
2018-03-01T19:24:36.843Z,49.10
2018-03-01T19:27:05.150Z,43.03
2018-03-01T19:29:32.711Z,42.37
2018-03-01T19:32:00.233Z,44.73
2018-03-01T19:34:28.518Z,47.67
2018-03-01T19:36:56.809Z,46.37
2018-03-01T19:39:24.332Z,45.17
2018-03-01T19:41:52.650Z,49.13
2018-03-01T19:44:20.162Z,50.63
2018-03-01T19:46:48.454Z,49.37
2018-03-01T19:49:17.458Z,47.87
2018-03-01T19:51:46.363Z,50.10
2018-03-01T19:54:13.874Z,46.90
2018-03-01T19:56:41.437Z,49.27
2018-03-01T19:59:08.983Z,49.60
2018-03-01T20:01:37.295Z,51.70
2018-03-01T20:04:05.571Z,52.07
2018-03-01T20:06:33.869Z,52.73
2018-03-01T20:09:01.401Z,48.63
2018-03-01T20:11:29.668Z,48.70
2018-03-01T20:13:57.944Z,52.57
2018-03-01T20:16:26.214Z,54.77
2018-03-01T20:18:54.535Z,46.20
2018-03-01T20:21:22.066Z,51.53
2018-03-01T20:23:50.365Z,52.63
2018-03-01T20:26:17.880Z,51.53
2018-03-01T20:28:47.095Z,54.53
2018-03-01T20:31:14.639Z,52.43
2018-03-01T20:33:43.032Z,50.80
2018-03-01T20:36:10.585Z,52.80
2018-03-01T20:38:38.138Z,53.17
2018-03-01T20:41:05.662Z,56.73
2018-03-01T20:43:33.166Z,56.60
2018-03-01T20:46:00.694Z,52.80
2018-03-01T20:48:28.999Z,55.33
2018-03-01T20:50:56.633Z,56.37
2018-03-01T20:53:24.951Z,54.73
2018-03-01T20:55:52.483Z,55.07
2018-03-01T20:58:20.015Z,56.13
2018-03-01T21:00:48.314Z,58.50
2018-03-01T21:03:17.099Z,55.27
2018-03-01T21:05:44.618Z,58.77
2018-03-01T21:08:12.180Z,57.23
2018-03-01T21:10:39.701Z,58.07
2018-03-01T21:13:07.202Z,58.67
2018-03-01T21:15:35.547Z,55.43
2018-03-01T21:18:03.090Z,55.30
2018-03-01T21:20:30.627Z,59.23
2018-03-01T21:22:58.138Z,53.80
2018-03-01T21:25:25.648Z,56.17
2018-03-01T21:27:53.300Z,62.17
2018-03-01T21:30:20.812Z,59.23
2018-03-01T21:32:48.329Z,59.97
2018-03-01T21:35:15.900Z,58.07
2018-03-01T21:37:43.402Z,57.30
2018-03-01T21:40:10.972Z,57.30
2018-03-01T21:42:39.339Z,58.23
2018-03-01T21:45:07.650Z,59.03
2018-03-01T21:47:35.166Z,57.50
2018-03-01T21:50:02.733Z,57.70
2018-03-01T21:52:31.125Z,54.73
2018-03-01T21:54:58.664Z,58.07
2018-03-01T21:57:27.046Z,59.97
2018-03-01T21:59:54.583Z,56.40
2018-03-01T22:02:22.199Z,56.80
2018-03-01T22:04:50.155Z,56.57
2018-03-01T22:07:17.704Z,53.33
2018-03-01T22:09:46.014Z,52.40
2018-03-01T22:12:13.531Z,60.77
2018-03-01T22:14:41.062Z,57.07
2018-03-01T22:17:08.611Z,54.53
2018-03-01T22:19:36.122Z,59.10
2018-03-01T22:22:03.671Z,58.40
2018-03-01T22:24:31.282Z,48.13
2018-03-01T22:26:58.801Z,54.97
2018-03-01T22:29:26.330Z,57.80
2018-03-01T22:31:53.864Z,56.90
2018-03-01T22:34:21.381Z,57.07
2018-03-01T22:36:48.966Z,56.53
2018-03-01T22:39:16.499Z,57.90
2018-03-01T22:41:44.098Z,55.50
2018-03-01T22:44:11.732Z,55.77
2018-03-01T22:46:39.270Z,53.60
2018-03-01T22:49:06.867Z,56.47
2018-03-01T22:51:34.471Z,55.47
2018-03-01T22:54:02.142Z,53.23
2018-03-01T22:56:29.678Z,57.60
2018-03-01T22:58:57.967Z,52.13
2018-03-01T23:01:25.503Z,58.17
2018-03-01T23:03:53.051Z,55.57
2018-03-01T23:06:21.406Z,53.67
2018-03-01T23:08:48.951Z,58.03
2018-03-01T23:11:16.506Z,54.83
2018-03-01T23:13:44.043Z,57.47
2018-03-01T23:16:11.584Z,59.13
2018-03-01T23:18:39.147Z,52.37
2018-03-01T23:21:06.658Z,57.87
2018-03-01T23:23:35.058Z,59.30
2018-03-01T23:26:02.604Z,56.80
2018-03-01T23:28:30.889Z,58.97
2018-03-01T23:30:59.167Z,56.50
2018-03-01T23:33:27.438Z,51.57
2018-03-01T23:35:55.732Z,55.03
2018-03-01T23:38:23.260Z,56.97
2018-03-01T23:40:50.786Z,56.53
2018-03-01T23:43:18.313Z,56.30
2018-03-01T23:45:45.880Z,57.93
2018-03-01T23:48:13.429Z,56.43
2018-03-01T23:50:40.943Z,58.10
2018-03-01T23:53:08.505Z,56.33
2018-03-01T23:55:36.867Z,60.43
2018-03-01T23:58:05.192Z,58.13
